sensor_id;sensor_type;location;lat;lon;timestamp;pressure;altitude;pressure_sealevel;temperature;humidity
78990;BME280;68390;52.130;21.218;2023-05-27T00:01:00;101378.66;;;8.80;63.77
78990;BME280;68390;52.130;21.218;2023-05-27T00:03:26;101371.97;;;8.73;63.25
78990;BME280;68390;52.130;21.218;2023-05-27T00:05:51;101376.25;;;8.66;63.41
78990;BME280;68390;52.130;21.218;2023-05-27T00:08:17;101377.81;;;8.59;63.70
78990;BME280;68390;52.130;21.218;2023-05-27T00:10:42;101382.78;;;8.54;63.86
78990;BME280;68390;52.130;21.218;2023-05-27T00:13:07;101389.56;;;8.50;64.44
78990;BME280;68390;52.130;21.218;2023-05-27T00:15:33;101386.34;;;8.45;64.53
78990;BME280;68390;52.130;21.218;2023-05-27T00:17:59;101386.88;;;8.39;65.15
78990;BME280;68390;52.130;21.218;2023-05-27T00:20:27;101389.13;;;8.34;65.86
78990;BME280;68390;52.130;21.218;2023-05-27T00:22:52;101386.91;;;8.28;65.79
78990;BME280;68390;52.130;21.218;2023-05-27T00:25:18;101385.28;;;8.25;66.69
78990;BME280;68390;52.130;21.218;2023-05-27T00:27:47;101387.69;;;8.19;66.24
78990;BME280;68390;52.130;21.218;2023-05-27T00:30:12;101380.72;;;8.15;66.77
78990;BME280;68390;52.130;21.218;2023-05-27T00:32:38;101391.94;;;8.11;66.88
78990;BME280;68390;52.130;21.218;2023-05-27T00:35:04;101382.25;;;8.07;66.58
78990;BME280;68390;52.130;21.218;2023-05-27T00:37:29;101386.25;;;8.03;67.21
78990;BME280;68390;52.130;21.218;2023-05-27T00:39:55;101385.78;;;7.98;67.99
78990;BME280;68390;52.130;21.218;2023-05-27T00:42:20;101374.22;;;7.95;67.68
78990;BME280;68390;52.130;21.218;2023-05-27T00:44:46;101380.81;;;7.92;68.88
78990;BME280;68390;52.130;21.218;2023-05-27T00:47:11;101383.66;;;7.91;68.57
78990;BME280;68390;52.130;21.218;2023-05-27T00:49:37;101378.72;;;7.85;68.03
78990;BME280;68390;52.130;21.218;2023-05-27T00:52:03;101387.06;;;7.83;69.76
78990;BME280;68390;52.130;21.218;2023-05-27T00:54:29;101373.16;;;7.75;68.88
78990;BME280;68390;52.130;21.218;2023-05-27T00:56:56;101376.03;;;7.73;69.10
78990;BME280;68390;52.130;21.218;2023-05-27T00:59:22;101374.94;;;7.65;70.52
78990;BME280;68390;52.130;21.218;2023-05-27T01:01:48;101361.75;;;7.59;69.18
78990;BME280;68390;52.130;21.218;2023-05-27T01:04:15;101378.03;;;7.60;69.63
78990;BME280;68390;52.130;21.218;2023-05-27T01:06:51;101377.69;;;7.54;69.63
78990;BME280;68390;52.130;21.218;2023-05-27T01:11:59;101389.50;;;7.43;70.63
78990;BME280;68390;52.130;21.218;2023-05-27T01:14:30;101389.16;;;7.36;70.95
78990;BME280;68390;52.130;21.218;2023-05-27T01:16:59;101388.41;;;7.34;70.65
78990;BME280;68390;52.130;21.218;2023-05-27T01:19:47;101396.22;;;7.28;70.99
78990;BME280;68390;52.130;21.218;2023-05-27T01:22:14;101394.09;;;7.20;71.13
78990;BME280;68390;52.130;21.218;2023-05-27T01:24:41;101401.56;;;7.18;71.04
78990;BME280;68390;52.130;21.218;2023-05-27T01:27:07;101402.69;;;7.16;70.89
78990;BME280;68390;52.130;21.218;2023-05-27T01:29:34;101397.59;;;7.11;71.82
78990;BME280;68390;52.130;21.218;2023-05-27T01:32:06;101401.31;;;7.10;71.77
78990;BME280;68390;52.130;21.218;2023-05-27T01:34:42;101399.97;;;7.05;71.44
78990;BME280;68390;52.130;21.218;2023-05-27T01:37:13;101393.88;;;7.01;71.55
78990;BME280;68390;52.130;21.218;2023-05-27T01:39:41;101394.09;;;6.98;71.83
78990;BME280;68390;52.130;21.218;2023-05-27T01:42:07;101395.59;;;6.91;72.41
78990;BME280;68390;52.130;21.218;2023-05-27T01:44:34;101399.31;;;6.90;71.70
78990;BME280;68390;52.130;21.218;2023-05-27T01:47:01;101390.25;;;6.89;72.24
78990;BME280;68390;52.130;21.218;2023-05-27T01:49:28;101401.41;;;6.86;72.15
78990;BME280;68390;52.130;21.218;2023-05-27T01:51:54;101400.06;;;6.81;73.85
78990;BME280;68390;52.130;21.218;2023-05-27T01:54:19;101403.28;;;6.75;74.05
78990;BME280;68390;52.130;21.218;2023-05-27T01:56:45;101398.28;;;6.69;73.17
78990;BME280;68390;52.130;21.218;2023-05-27T01:59:10;101396.66;;;6.66;73.70
78990;BME280;68390;52.130;21.218;2023-05-27T02:01:37;101414.66;;;6.69;73.60
78990;BME280;68390;52.130;21.218;2023-05-27T02:04:02;101415.88;;;6.64;73.92
78990;BME280;68390;52.130;21.218;2023-05-27T02:06:29;101416.03;;;6.63;74.41
78990;BME280;68390;52.130;21.218;2023-05-27T02:08:54;101407.31;;;6.58;73.86
78990;BME280;68390;52.130;21.218;2023-05-27T02:11:20;101403.09;;;6.54;74.23
78990;BME280;68390;52.130;21.218;2023-05-27T02:13:45;101397.34;;;6.46;74.33
78990;BME280;68390;52.130;21.218;2023-05-27T02:16:10;101407.28;;;6.47;74.20
78990;BME280;68390;52.130;21.218;2023-05-27T02:18:37;101405.91;;;6.41;75.38
78990;BME280;68390;52.130;21.218;2023-05-27T02:21:03;101410.97;;;6.35;75.99
78990;BME280;68390;52.130;21.218;2023-05-27T02:23:32;101409.69;;;6.28;76.21
78990;BME280;68390;52.130;21.218;2023-05-27T02:25:57;101407.56;;;6.20;76.48
78990;BME280;68390;52.130;21.218;2023-05-27T02:28:22;101417.38;;;6.22;76.03
78990;BME280;68390;52.130;21.218;2023-05-27T02:30:48;101424.81;;;6.20;76.25
78990;BME280;68390;52.130;21.218;2023-05-27T02:33:13;101423.81;;;6.21;76.24
78990;BME280;68390;52.130;21.218;2023-05-27T02:35:39;101420.44;;;6.18;76.54
78990;BME280;68390;52.130;21.218;2023-05-27T02:38:04;101431.34;;;6.18;76.81
78990;BME280;68390;52.130;21.218;2023-05-27T02:40:29;101427.88;;;6.16;77.83
78990;BME280;68390;52.130;21.218;2023-05-27T02:42:56;101433.31;;;6.16;77.20
78990;BME280;68390;52.130;21.218;2023-05-27T02:45:22;101419.19;;;6.11;77.63
78990;BME280;68390;52.130;21.218;2023-05-27T02:47:47;101431.84;;;6.12;78.20
78990;BME280;68390;52.130;21.218;2023-05-27T02:50:13;101428.25;;;6.11;78.22
78990;BME280;68390;52.130;21.218;2023-05-27T02:52:38;101422.91;;;6.10;78.04
78990;BME280;68390;52.130;21.218;2023-05-27T02:55:24;101431.59;;;6.15;79.69
78990;BME280;68390;52.130;21.218;2023-05-27T02:57:49;101429.84;;;6.14;78.20
78990;BME280;68390;52.130;21.218;2023-05-27T03:00:15;101433.09;;;6.19;78.18
78990;BME280;68390;52.130;21.218;2023-05-27T03:02:42;101429.50;;;6.18;77.96
78990;BME280;68390;52.130;21.218;2023-05-27T03:05:07;101430.16;;;6.22;78.28
78990;BME280;68390;52.130;21.218;2023-05-27T03:07:33;101438.06;;;6.25;77.58
78990;BME280;68390;52.130;21.218;2023-05-27T03:09:58;101439.81;;;6.26;79.21
78990;BME280;68390;52.130;21.218;2023-05-27T03:12:24;101430.75;;;6.25;78.76
78990;BME280;68390;52.130;21.218;2023-05-27T03:14:50;101436.63;;;6.32;79.33
78990;BME280;68390;52.130;21.218;2023-05-27T03:17:15;101431.41;;;6.29;79.49
78990;BME280;68390;52.130;21.218;2023-05-27T03:19:41;101441.72;;;6.37;79.46
78990;BME280;68390;52.130;21.218;2023-05-27T03:22:08;101438.00;;;6.38;80.41
78990;BME280;68390;52.130;21.218;2023-05-27T03:24:34;101440.41;;;6.42;79.83
78990;BME280;68390;52.130;21.218;2023-05-27T03:27:00;101449.94;;;6.48;79.75
78990;BME280;68390;52.130;21.218;2023-05-27T03:29:27;101437.19;;;6.48;79.68
78990;BME280;68390;52.130;21.218;2023-05-27T03:31:52;101436.56;;;6.56;79.73
78990;BME280;68390;52.130;21.218;2023-05-27T03:34:18;101447.03;;;6.62;79.98
78990;BME280;68390;52.130;21.218;2023-05-27T03:36:43;101451.13;;;6.68;79.20
78990;BME280;68390;52.130;21.218;2023-05-27T03:39:11;101446.19;;;6.73;81.14
78990;BME280;68390;52.130;21.218;2023-05-27T03:41:37;101448.44;;;6.79;79.87
78990;BME280;68390;52.130;21.218;2023-05-27T03:44:02;101449.69;;;6.86;80.80
78990;BME280;68390;52.130;21.218;2023-05-27T03:46:27;101453.91;;;6.90;80.39
78990;BME280;68390;52.130;21.218;2023-05-27T03:48:53;101458.03;;;6.95;80.60
78990;BME280;68390;52.130;21.218;2023-05-27T03:51:20;101459.28;;;7.03;80.53
78990;BME280;68390;52.130;21.218;2023-05-27T03:53:45;101459.78;;;7.08;80.02
78990;BME280;68390;52.130;21.218;2023-05-27T03:56:11;101465.75;;;7.13;80.44
78990;BME280;68390;52.130;21.218;2023-05-27T03:58:36;101469.72;;;7.20;79.16
78990;BME280;68390;52.130;21.218;2023-05-27T04:01:01;101474.72;;;7.26;79.11
78990;BME280;68390;52.130;21.218;2023-05-27T04:03:28;101472.59;;;7.29;78.10
78990;BME280;68390;52.130;21.218;2023-05-27T04:05:53;101483.03;;;7.35;78.86
78990;BME280;68390;52.130;21.218;2023-05-27T04:08:19;101488.00;;;7.42;78.51
78990;BME280;68390;52.130;21.218;2023-05-27T04:10:48;101486.78;;;7.46;77.66
78990;BME280;68390;52.130;21.218;2023-05-27T04:13:13;101490.00;;;7.51;77.65
78990;BME280;68390;52.130;21.218;2023-05-27T04:15:38;101497.81;;;7.55;77.81
78990;BME280;68390;52.130;21.218;2023-05-27T04:18:04;101499.56;;;7.56;77.57
78990;BME280;68390;52.130;21.218;2023-05-27T04:20:40;101490.38;;;7.57;77.44
78990;BME280;68390;52.130;21.218;2023-05-27T04:23:07;101494.47;;;7.63;76.95
78990;BME280;68390;52.130;21.218;2023-05-27T04:25:33;101489.88;;;7.63;76.78
78990;BME280;68390;52.130;21.218;2023-05-27T04:28:00;101492.84;;;7.71;77.50
78990;BME280;68390;52.130;21.218;2023-05-27T04:30:25;101491.47;;;7.77;77.51
78990;BME280;68390;52.130;21.218;2023-05-27T04:32:51;101510.00;;;7.85;76.65
78990;BME280;68390;52.130;21.218;2023-05-27T04:35:17;101501.16;;;7.92;76.48
78990;BME280;68390;52.130;21.218;2023-05-27T04:37:43;101495.19;;;7.98;76.40
78990;BME280;68390;52.130;21.218;2023-05-27T04:40:10;101494.66;;;8.04;76.05
78990;BME280;68390;52.130;21.218;2023-05-27T04:42:36;101490.41;;;8.11;76.44
78990;BME280;68390;52.130;21.218;2023-05-27T04:45:02;101497.25;;;8.17;76.20
78990;BME280;68390;52.130;21.218;2023-05-27T04:47:29;101500.22;;;8.25;75.91
78990;BME280;68390;52.130;21.218;2023-05-27T04:49:56;101509.66;;;8.32;75.83
78990;BME280;68390;52.130;21.218;2023-05-27T04:52:21;101498.34;;;8.37;75.22
78990;BME280;68390;52.130;21.218;2023-05-27T04:54:48;101506.28;;;8.51;75.28
78990;BME280;68390;52.130;21.218;2023-05-27T04:57:14;101505.16;;;8.74;73.17
78990;BME280;68390;52.130;21.218;2023-05-27T04:59:47;101502.19;;;8.98;72.47
78990;BME280;68390;52.130;21.218;2023-05-27T05:02:43;101505.47;;;9.13;72.40
78990;BME280;68390;52.130;21.218;2023-05-27T05:05:11;101498.31;;;9.22;73.57
78990;BME280;68390;52.130;21.218;2023-05-27T05:07:37;101510.44;;;9.29;71.28
78990;BME280;68390;52.130;21.218;2023-05-27T05:10:05;101504.41;;;9.35;71.74
78990;BME280;68390;52.130;21.218;2023-05-27T05:12:31;101499.53;;;9.38;70.34
78990;BME280;68390;52.130;21.218;2023-05-27T05:14:57;101495.25;;;9.45;71.32
78990;BME280;68390;52.130;21.218;2023-05-27T05:17:23;101504.69;;;9.52;71.27
78990;BME280;68390;52.130;21.218;2023-05-27T05:19:51;101503.41;;;9.66;70.83
78990;BME280;68390;52.130;21.218;2023-05-27T05:22:16;101496.44;;;9.83;71.02
78990;BME280;68390;52.130;21.218;2023-05-27T05:24:44;101505.56;;;9.93;70.02
78990;BME280;68390;52.130;21.218;2023-05-27T05:27:10;101500.38;;;10.00;67.81
78990;BME280;68390;52.130;21.218;2023-05-27T05:29:35;101486.81;;;10.08;69.97
78990;BME280;68390;52.130;21.218;2023-05-27T05:32:02;101494.50;;;10.14;68.13
78990;BME280;68390;52.130;21.218;2023-05-27T05:34:27;101499.31;;;10.31;67.69
78990;BME280;68390;52.130;21.218;2023-05-27T05:36:53;101499.78;;;10.46;66.66
78990;BME280;68390;52.130;21.218;2023-05-27T05:39:18;101496.03;;;10.85;65.17
78990;BME280;68390;52.130;21.218;2023-05-27T05:41:45;101502.25;;;11.07;64.77
78990;BME280;68390;52.130;21.218;2023-05-27T05:44:11;101500.22;;;11.09;63.72
78990;BME280;68390;52.130;21.218;2023-05-27T05:46:36;101506.44;;;11.11;63.06
78990;BME280;68390;52.130;21.218;2023-05-27T05:49:02;101507.13;;;11.13;63.68
78990;BME280;68390;52.130;21.218;2023-05-27T05:51:27;101509.72;;;11.24;64.12
78990;BME280;68390;52.130;21.218;2023-05-27T05:53:53;101514.66;;;11.30;63.34
78990;BME280;68390;52.130;21.218;2023-05-27T05:56:18;101526.34;;;11.42;63.31
78990;BME280;68390;52.130;21.218;2023-05-27T05:58:43;101518.09;;;11.42;61.91
78990;BME280;68390;52.130;21.218;2023-05-27T06:01:09;101521.44;;;11.35;62.49
78990;BME280;68390;52.130;21.218;2023-05-27T06:03:35;101511.91;;;11.30;62.22
78990;BME280;68390;52.130;21.218;2023-05-27T06:06:01;101511.59;;;11.33;62.77
78990;BME280;68390;52.130;21.218;2023-05-27T06:08:27;101516.38;;;11.40;62.10
78990;BME280;68390;52.130;21.218;2023-05-27T06:10:52;101522.41;;;11.44;61.44
78990;BME280;68390;52.130;21.218;2023-05-27T06:13:18;101511.56;;;11.52;64.76
78990;BME280;68390;52.130;21.218;2023-05-27T06:15:43;101524.09;;;11.64;61.51
78990;BME280;68390;52.130;21.218;2023-05-27T06:18:08;101529.44;;;11.75;59.02
78990;BME280;68390;52.130;21.218;2023-05-27T06:20:34;101526.50;;;11.87;59.13
78990;BME280;68390;52.130;21.218;2023-05-27T06:22:59;101531.53;;;12.01;59.25
78990;BME280;68390;52.130;21.218;2023-05-27T06:25:25;101541.34;;;12.13;60.13
78990;BME280;68390;52.130;21.218;2023-05-27T06:27:50;101524.75;;;12.23;58.05
78990;BME280;68390;52.130;21.218;2023-05-27T06:30:16;101542.25;;;12.31;56.52
78990;BME280;68390;52.130;21.218;2023-05-27T06:32:41;101545.09;;;12.39;58.08
78990;BME280;68390;52.130;21.218;2023-05-27T06:35:07;101537.38;;;12.43;57.42
78990;BME280;68390;52.130;21.218;2023-05-27T06:37:32;101535.59;;;12.52;59.48
78990;BME280;68390;52.130;21.218;2023-05-27T06:39:57;101542.84;;;12.53;55.46
78990;BME280;68390;52.130;21.218;2023-05-27T06:42:23;101546.31;;;12.55;55.42
78990;BME280;68390;52.130;21.218;2023-05-27T06:44:48;101531.50;;;12.56;54.92
78990;BME280;68390;52.130;21.218;2023-05-27T06:47:14;101532.91;;;12.60;55.79
78990;BME280;68390;52.130;21.218;2023-05-27T06:49:40;101540.38;;;12.67;55.88
78990;BME280;68390;52.130;21.218;2023-05-27T06:52:06;101555.31;;;12.74;54.19
78990;BME280;68390;52.130;21.218;2023-05-27T06:54:31;101555.38;;;12.82;56.74
78990;BME280;68390;52.130;21.218;2023-05-27T06:56:57;101550.81;;;12.91;54.07
78990;BME280;68390;52.130;21.218;2023-05-27T06:59:22;101550.50;;;12.94;52.68
78990;BME280;68390;52.130;21.218;2023-05-27T07:01:48;101560.00;;;13.00;53.82
78990;BME280;68390;52.130;21.218;2023-05-27T07:04:14;101554.03;;;13.04;54.22
78990;BME280;68390;52.130;21.218;2023-05-27T07:06:39;101556.44;;;13.17;51.66
78990;BME280;68390;52.130;21.218;2023-05-27T07:09:05;101557.06;;;13.29;52.42
78990;BME280;68390;52.130;21.218;2023-05-27T07:11:31;101551.44;;;13.38;53.89
78990;BME280;68390;52.130;21.218;2023-05-27T07:13:56;101563.41;;;13.47;50.48
78990;BME280;68390;52.130;21.218;2023-05-27T07:16:21;101554.88;;;13.40;52.41
78990;BME280;68390;52.130;21.218;2023-05-27T07:18:47;101551.97;;;13.42;49.80
78990;BME280;68390;52.130;21.218;2023-05-27T07:21:12;101556.84;;;13.48;50.14
78990;BME280;68390;52.130;21.218;2023-05-27T07:23:38;101548.63;;;13.56;52.55
78990;BME280;68390;52.130;21.218;2023-05-27T07:26:03;101546.31;;;13.69;51.20
78990;BME280;68390;52.130;21.218;2023-05-27T07:28:28;101538.94;;;13.78;49.99
78990;BME280;68390;52.130;21.218;2023-05-27T07:30:54;101541.53;;;13.79;50.34
78990;BME280;68390;52.130;21.218;2023-05-27T07:33:20;101544.19;;;13.89;47.55
78990;BME280;68390;52.130;21.218;2023-05-27T07:35:45;101542.66;;;13.94;48.54
78990;BME280;68390;52.130;21.218;2023-05-27T07:38:11;101543.03;;;14.00;46.42
78990;BME280;68390;52.130;21.218;2023-05-27T07:40:36;101540.13;;;14.01;45.87
78990;BME280;68390;52.130;21.218;2023-05-27T07:43:01;101536.84;;;14.06;45.69
78990;BME280;68390;52.130;21.218;2023-05-27T07:45:27;101536.88;;;14.14;45.88
78990;BME280;68390;52.130;21.218;2023-05-27T07:47:53;101528.44;;;14.15;46.59
78990;BME280;68390;52.130;21.218;2023-05-27T07:50:18;101525.53;;;14.25;47.25
78990;BME280;68390;52.130;21.218;2023-05-27T07:52:44;101521.59;;;14.36;46.39
78990;BME280;68390;52.130;21.218;2023-05-27T07:55:09;101525.97;;;14.46;45.92
78990;BME280;68390;52.130;21.218;2023-05-27T07:57:34;101516.66;;;14.55;46.40
78990;BME280;68390;52.130;21.218;2023-05-27T08:00:00;101526.53;;;14.66;44.83
78990;BME280;68390;52.130;21.218;2023-05-27T08:02:25;101518.28;;;14.74;44.97
78990;BME280;68390;52.130;21.218;2023-05-27T08:04:51;101517.94;;;14.77;46.51
78990;BME280;68390;52.130;21.218;2023-05-27T08:07:17;101518.28;;;14.82;46.36
78990;BME280;68390;52.130;21.218;2023-05-27T08:09:43;101515.88;;;14.95;47.34
78990;BME280;68390;52.130;21.218;2023-05-27T08:12:08;101518.81;;;15.02;44.65
78990;BME280;68390;52.130;21.218;2023-05-27T08:14:34;101517.44;;;14.98;42.16
78990;BME280;68390;52.130;21.218;2023-05-27T08:17:00;101512.09;;;15.04;43.96
78990;BME280;68390;52.130;21.218;2023-05-27T08:19:27;101518.47;;;15.21;44.18
78990;BME280;68390;52.130;21.218;2023-05-27T08:21:52;101518.47;;;15.37;47.61
78990;BME280;68390;52.130;21.218;2023-05-27T08:24:18;101512.06;;;15.45;43.70
78990;BME280;68390;52.130;21.218;2023-05-27T08:26:47;101524.72;;;15.56;41.77
78990;BME280;68390;52.130;21.218;2023-05-27T08:29:12;101514.63;;;15.71;44.77
78990;BME280;68390;52.130;21.218;2023-05-27T08:31:38;101514.47;;;15.72;38.50
78990;BME280;68390;52.130;21.218;2023-05-27T08:34:04;101512.88;;;15.78;39.74
78990;BME280;68390;52.130;21.218;2023-05-27T08:36:29;101506.09;;;15.89;42.50
78990;BME280;68390;52.130;21.218;2023-05-27T08:38:56;101518.00;;;16.05;41.91
78990;BME280;68390;52.130;21.218;2023-05-27T08:41:22;101504.75;;;16.24;42.96
78990;BME280;68390;52.130;21.218;2023-05-27T08:43:47;101519.44;;;16.32;40.60
78990;BME280;68390;52.130;21.218;2023-05-27T08:46:13;101514.06;;;16.39;37.30
78990;BME280;68390;52.130;21.218;2023-05-27T08:48:40;101508.16;;;16.34;36.71
78990;BME280;68390;52.130;21.218;2023-05-27T08:51:05;101508.91;;;16.28;35.17
78990;BME280;68390;52.130;21.218;2023-05-27T08:53:32;101509.91;;;16.35;39.98
78990;BME280;68390;52.130;21.218;2023-05-27T08:55:59;101499.56;;;16.51;40.50
78990;BME280;68390;52.130;21.218;2023-05-27T08:58:27;101504.38;;;16.66;38.75
78990;BME280;68390;52.130;21.218;2023-05-27T09:00:52;101495.75;;;16.83;39.34
78990;BME280;68390;52.130;21.218;2023-05-27T09:03:18;101506.69;;;16.85;36.33
78990;BME280;68390;52.130;21.218;2023-05-27T09:05:43;101497.66;;;16.83;35.01
78990;BME280;68390;52.130;21.218;2023-05-27T09:08:08;101496.44;;;16.85;35.69
78990;BME280;68390;52.130;21.218;2023-05-27T09:10:38;101505.44;;;16.87;34.53
78990;BME280;68390;52.130;21.218;2023-05-27T09:13:04;101502.25;;;16.99;36.62
78990;BME280;68390;52.130;21.218;2023-05-27T09:15:34;101477.94;;;17.01;37.07
78990;BME280;68390;52.130;21.218;2023-05-27T09:18:01;101491.84;;;17.15;36.96
78990;BME280;68390;52.130;21.218;2023-05-27T09:20:28;101505.13;;;17.28;35.86
78990;BME280;68390;52.130;21.218;2023-05-27T09:23:00;101496.16;;;17.41;34.77
78990;BME280;68390;52.130;21.218;2023-05-27T09:25:27;101487.50;;;17.36;31.55
78990;BME280;68390;52.130;21.218;2023-05-27T09:27:53;101485.81;;;17.49;36.85
78990;BME280;68390;52.130;21.218;2023-05-27T09:30:20;101496.13;;;17.64;32.74
78990;BME280;68390;52.130;21.218;2023-05-27T09:32:46;101491.53;;;17.71;32.75
78990;BME280;68390;52.130;21.218;2023-05-27T09:35:12;101494.53;;;17.84;33.10
78990;BME280;68390;52.130;21.218;2023-05-27T09:37:38;101492.88;;;17.89;33.54
78990;BME280;68390;52.130;21.218;2023-05-27T09:40:06;101493.00;;;17.96;30.68
78990;BME280;68390;52.130;21.218;2023-05-27T09:42:47;101489.69;;;18.07;31.66
78990;BME280;68390;52.130;21.218;2023-05-27T09:45:18;101495.84;;;18.03;30.71
78990;BME280;68390;52.130;21.218;2023-05-27T09:47:50;101494.00;;;18.10;31.59
78990;BME280;68390;52.130;21.218;2023-05-27T09:50:17;101486.06;;;18.07;28.13
78990;BME280;68390;52.130;21.218;2023-05-27T09:52:44;101500.91;;;17.99;30.02
78990;BME280;68390;52.130;21.218;2023-05-27T09:55:11;101500.44;;;18.10;28.84
78990;BME280;68390;52.130;21.218;2023-05-27T09:57:38;101487.69;;;18.16;30.49
78990;BME280;68390;52.130;21.218;2023-05-27T10:00:08;101491.91;;;18.26;29.32
78990;BME280;68390;52.130;21.218;2023-05-27T10:02:42;101504.44;;;18.37;31.35
78990;BME280;68390;52.130;21.218;2023-05-27T10:05:11;101491.53;;;18.51;31.58
78990;BME280;68390;52.130;21.218;2023-05-27T10:07:38;101491.69;;;18.57;29.91
78990;BME280;68390;52.130;21.218;2023-05-27T10:10:09;101503.25;;;18.61;26.73
78990;BME280;68390;52.130;21.218;2023-05-27T10:12:39;101507.00;;;18.53;28.75
78990;BME280;68390;52.130;21.218;2023-05-27T10:15:06;101510.56;;;18.47;25.79
78990;BME280;68390;52.130;21.218;2023-05-27T10:17:49;101505.88;;;18.48;25.59
78990;BME280;68390;52.130;21.218;2023-05-27T10:20:31;101508.91;;;18.53;26.30
78990;BME280;68390;52.130;21.218;2023-05-27T10:23:09;101519.28;;;18.59;28.65
78990;BME280;68390;52.130;21.218;2023-05-27T10:25:44;101507.84;;;18.54;23.95
78990;BME280;68390;52.130;21.218;2023-05-27T10:28:11;101496.91;;;18.52;26.89
78990;BME280;68390;52.130;21.218;2023-05-27T10:30:44;101493.28;;;18.66;28.79
78990;BME280;68390;52.130;21.218;2023-05-27T10:33:10;101498.34;;;18.78;29.20
78990;BME280;68390;52.130;21.218;2023-05-27T10:35:42;101501.97;;;18.78;26.06
78990;BME280;68390;52.130;21.218;2023-05-27T10:38:17;101489.50;;;18.74;27.53
78990;BME280;68390;52.130;21.218;2023-05-27T10:40:43;101498.72;;;18.75;27.73
78990;BME280;68390;52.130;21.218;2023-05-27T10:43:17;101502.50;;;18.67;26.14
78990;BME280;68390;52.130;21.218;2023-05-27T10:45:43;101485.38;;;18.70;27.37
78990;BME280;68390;52.130;21.218;2023-05-27T10:48:16;101495.69;;;18.55;25.72
78990;BME280;68390;52.130;21.218;2023-05-27T10:50:49;101488.97;;;18.64;25.97
78990;BME280;68390;52.130;21.218;2023-05-27T10:53:17;101491.16;;;18.68;25.57
78990;BME280;68390;52.130;21.218;2023-05-27T10:55:43;101488.00;;;18.57;26.99
78990;BME280;68390;52.130;21.218;2023-05-27T10:58:11;101481.09;;;18.67;26.68
78990;BME280;68390;52.130;21.218;2023-05-27T11:00:37;101478.69;;;18.64;25.83
78990;BME280;68390;52.130;21.218;2023-05-27T11:03:03;101491.91;;;18.77;27.37
78990;BME280;68390;52.130;21.218;2023-05-27T11:05:28;101493.75;;;18.91;29.68
78990;BME280;68390;52.130;21.218;2023-05-27T11:07:59;101496.28;;;18.86;28.23
78990;BME280;68390;52.130;21.218;2023-05-27T11:10:25;101490.44;;;18.81;28.41
78990;BME280;68390;52.130;21.218;2023-05-27T11:12:51;101481.09;;;18.89;27.47
78990;BME280;68390;52.130;21.218;2023-05-27T11:15:18;101485.41;;;18.91;27.10
78990;BME280;68390;52.130;21.218;2023-05-27T11:17:43;101479.63;;;18.93;26.09
78990;BME280;68390;52.130;21.218;2023-05-27T11:20:09;101477.31;;;18.96;25.12
78990;BME280;68390;52.130;21.218;2023-05-27T11:22:35;101490.25;;;19.04;30.42
78990;BME280;68390;52.130;21.218;2023-05-27T11:25:02;101482.94;;;19.03;26.53
78990;BME280;68390;52.130;21.218;2023-05-27T11:27:38;101485.53;;;19.04;24.24
78990;BME280;68390;52.130;21.218;2023-05-27T11:30:11;101476.13;;;19.05;24.29
78990;BME280;68390;52.130;21.218;2023-05-27T11:32:37;101482.50;;;18.99;26.17
78990;BME280;68390;52.130;21.218;2023-05-27T11:35:03;101486.00;;;18.87;24.20
78990;BME280;68390;52.130;21.218;2023-05-27T11:37:34;101482.50;;;18.78;26.30
78990;BME280;68390;52.130;21.218;2023-05-27T11:40:00;101479.28;;;18.81;25.61
78990;BME280;68390;52.130;21.218;2023-05-27T11:42:28;101469.97;;;18.89;26.67
78990;BME280;68390;52.130;21.218;2023-05-27T11:44:54;101474.34;;;18.98;25.88
78990;BME280;68390;52.130;21.218;2023-05-27T11:47:20;101461.94;;;19.00;26.35
78990;BME280;68390;52.130;21.218;2023-05-27T11:49:47;101468.88;;;19.11;25.63
78990;BME280;68390;52.130;21.218;2023-05-27T11:52:13;101462.25;;;19.12;25.13
78990;BME280;68390;52.130;21.218;2023-05-27T11:54:39;101463.66;;;19.01;26.09
78990;BME280;68390;52.130;21.218;2023-05-27T11:57:04;101451.22;;;18.97;27.45
78990;BME280;68390;52.130;21.218;2023-05-27T11:59:35;101455.91;;;18.97;25.72
78990;BME280;68390;52.130;21.218;2023-05-27T12:02:01;101451.22;;;18.97;26.40
78990;BME280;68390;52.130;21.218;2023-05-27T12:04:26;101440.84;;;18.91;27.98
78990;BME280;68390;52.130;21.218;2023-05-27T12:06:52;101439.41;;;18.95;26.86
78990;BME280;68390;52.130;21.218;2023-05-27T12:09:17;101444.44;;;19.06;25.91
78990;BME280;68390;52.130;21.218;2023-05-27T12:11:42;101444.44;;;19.06;22.31
78990;BME280;68390;52.130;21.218;2023-05-27T12:14:08;101448.00;;;19.00;22.67
78990;BME280;68390;52.130;21.218;2023-05-27T12:16:33;101455.50;;;19.00;23.41
78990;BME280;68390;52.130;21.218;2023-05-27T12:18:59;101448.16;;;18.92;21.49
78990;BME280;68390;52.130;21.218;2023-05-27T12:21:25;101446.63;;;18.90;24.07
78990;BME280;68390;52.130;21.218;2023-05-27T12:23:51;101445.13;;;18.87;24.02
78990;BME280;68390;52.130;21.218;2023-05-27T12:26:16;101446.84;;;18.88;24.37
78990;BME280;68390;52.130;21.218;2023-05-27T12:28:42;101424.50;;;18.82;24.90
78990;BME280;68390;52.130;21.218;2023-05-27T12:31:08;101434.66;;;18.89;24.73
78990;BME280;68390;52.130;21.218;2023-05-27T12:33:33;101449.50;;;18.96;26.16
78990;BME280;68390;52.130;21.218;2023-05-27T12:35:59;101439.47;;;19.02;23.71
78990;BME280;68390;52.130;21.218;2023-05-27T12:38:25;101435.63;;;19.03;23.61
78990;BME280;68390;52.130;21.218;2023-05-27T12:40:50;101433.44;;;18.98;26.93
78990;BME280;68390;52.130;21.218;2023-05-27T12:43:17;101434.94;;;19.01;23.10
78990;BME280;68390;52.130;21.218;2023-05-27T12:45:43;101436.75;;;19.09;26.63